Time;durP1;ratioP1;P1;durP2;ratioP2;P2;SDS_P1;SDS_P2;PMS_P1;PMS_P2;Temp;Humidity;BMP_temperature;BMP_pressure;BME280_temperature;BME280_humidity;BME280_pressure;Samples;Min_cycle;Max_cycle;Signal;HPM_P1;HPM_P2
2023/01/21 00:01:08;;;;;;;8.10;7.38;;;17.90;51.50;;;;;;5114914;28;20173;-59
2023/01/21 00:03:34;;;;;;;9.10;8.30;;;17.80;51.40;;;;;;5114315;28;20205;-60
2023/01/21 00:05:59;;;;;;;8.13;7.28;;;17.80;51.40;;;;;;5114266;28;20165;-60
2023/01/21 00:08:25;;;;;;;8.88;8.07;;;17.80;51.40;;;;;;5114966;28;20179;-60
2023/01/21 00:10:50;;;;;;;8.25;7.55;;;17.80;51.50;;;;;;5114515;28;20192;-60
2023/01/21 00:13:16;;;;;;;8.13;7.43;;;17.80;51.60;;;;;;5113999;28;20256;-60
2023/01/21 00:15:42;;;;;;;8.57;7.78;;;17.70;51.40;;;;;;5114378;28;20183;-60
2023/01/21 00:18:07;;;;;;;8.50;7.63;;;17.70;51.40;;;;;;5114507;28;20197;-60
2023/01/21 00:20:33;;;;;;;9.10;8.30;;;17.70;51.50;;;;;;5113644;28;20623;-60
2023/01/21 00:22:58;;;;;;;8.52;7.47;;;17.70;51.40;;;;;;5114467;28;20742;-60
2023/01/21 00:25:24;;;;;;;9.52;8.63;;;17.70;51.50;;;;;;5113498;28;20225;-60
2023/01/21 00:27:49;;;;;;;9.10;8.30;;;17.70;51.50;;;;;;5113297;28;20169;-59
2023/01/21 00:30:15;;;;;;;8.88;8.07;;;17.60;51.40;;;;;;5114212;28;20173;-59
2023/01/21 00:32:40;;;;;;;9.23;8.25;;;17.60;51.40;;;;;;5113819;28;20188;-59
2023/01/21 00:35:06;;;;;;;8.20;7.50;;;17.60;51.40;;;;;;5113448;28;20191;-60
2023/01/21 00:37:32;;;;;;;8.57;7.78;;;17.60;51.40;;;;;;5113985;28;20177;-59
2023/01/21 00:39:58;;;;;;;8.82;8.02;;;17.60;51.50;;;;;;5114272;28;20169;-60
2023/01/21 00:42:23;;;;;;;7.93;7.22;;;17.60;51.50;;;;;;5113409;28;20265;-60
2023/01/21 00:44:49;;;;;;;9.00;8.15;;;17.50;51.40;;;;;;5113627;28;20173;-60
2023/01/21 00:47:14;;;;;;;8.82;8.02;;;17.50;51.50;;;;;;5113988;28;20290;-60
2023/01/21 00:49:40;;;;;;;8.68;7.85;;;17.50;51.50;;;;;;5112915;28;20169;-60
2023/01/21 00:52:05;;;;;;;9.40;8.50;;;17.50;51.40;;;;;;5114027;28;20189;-59
2023/01/21 00:54:31;;;;;;;8.43;7.72;;;17.50;51.40;;;;;;5113537;28;20701;-60
2023/01/21 00:56:57;;;;;;;8.68;7.88;;;17.50;51.60;;;;;;5113402;28;20184;-59
2023/01/21 00:59:23;;;;;;;8.68;7.88;;;17.40;51.40;;;;;;5113754;28;20177;-59
2023/01/21 01:01:48;;;;;;;9.23;8.40;;;17.40;51.50;;;;;;5112488;28;20258;-59
2023/01/21 01:04:14;;;;;;;8.77;7.97;;;17.40;51.40;;;;;;5113663;28;20177;-60
2023/01/21 01:06:39;;;;;;;9.05;8.15;;;17.40;51.40;;;;;;5113272;28;20173;-60
2023/01/21 01:09:05;;;;;;;8.40;7.70;;;17.40;51.50;;;;;;5113124;28;20169;-60
2023/01/21 01:11:30;;;;;;;8.50;7.70;;;17.40;51.50;;;;;;5113334;28;20172;-60
2023/01/21 01:13:57;;;;;;;8.82;8.02;;;17.40;51.50;;;;;;5113469;28;20188;-60
2023/01/21 01:16:23;;;;;;;8.50;7.70;;;17.40;51.50;;;;;;5112545;28;20304;-60
2023/01/21 01:18:51;;;;;;;8.05;7.35;;;17.30;51.40;;;;;;5113110;28;20683;-60
2023/01/21 01:21:17;;;;;;;7.85;7.25;;;17.30;51.40;;;;;;5113296;28;20185;-60
2023/01/21 01:23:43;;;;;;;8.02;7.30;;;17.30;51.50;;;;;;5112531;28;20177;-60
2023/01/21 01:26:10;;;;;;;9.10;8.20;;;17.30;51.40;;;;;;5113477;28;20222;-59
2023/01/21 01:28:35;;;;;;;9.02;8.20;;;17.30;51.40;;;;;;5095129;28;20177;-59
2023/01/21 01:31:03;;;;;;;8.23;7.50;;;17.30;51.40;;;;;;5112624;28;20692;-59
2023/01/21 01:33:29;;;;;;;8.63;7.80;;;17.30;51.40;;;;;;5113274;28;20627;-60
2023/01/21 01:35:57;;;;;;;8.15;7.45;;;17.20;51.40;;;;;;5094662;28;20184;-59
2023/01/21 01:38:23;;;;;;;8.40;7.70;;;17.20;51.40;;;;;;5077899;28;20632;-60
2023/01/21 01:40:49;;;;;;;8.45;7.68;;;17.20;51.40;;;;;;5112939;28;20180;-60
2023/01/21 01:43:17;;;;;;;8.10;7.40;;;17.20;51.40;;;;;;5113130;28;20208;-60
2023/01/21 01:45:42;;;;;;;8.40;7.70;;;17.20;51.40;;;;;;5112122;28;20620;-59
2023/01/21 01:48:08;;;;;;;7.90;7.20;;;17.10;51.30;;;;;;5113346;28;20187;-59
2023/01/21 01:50:35;;;;;;;8.25;7.45;;;17.10;51.40;;;;;;5113034;28;20544;-59
2023/01/21 01:53:00;;;;;;;8.02;7.32;;;17.10;51.40;;;;;;5094642;28;20181;-59
2023/01/21 01:55:31;;;;;;;8.88;8.07;;;17.20;51.40;;;;;;5113253;28;20173;-59
2023/01/21 01:57:56;;;;;;;8.15;7.35;;;17.10;51.40;;;;;;5077492;28;20553;-59
2023/01/21 02:00:22;;;;;;;7.70;7.00;;;17.10;51.30;;;;;;5113065;28;20173;-60
2023/01/21 02:03:43;;;;;;;8.35;7.55;;;17.10;51.40;;;;;;5094648;28;20221;-60
2023/01/21 02:05:33;;;;;;;8.00;7.20;;;17.10;51.30;;;;;;5111928;28;20252;-60
2023/01/21 02:07:59;;;;;;;7.68;7.07;;;17.10;51.40;;;;;;5094738;28;20608;-60
2023/01/21 02:10:25;;;;;;;7.47;6.88;;;17.00;51.30;;;;;;5094885;28;20169;-60
2023/01/21 02:12:50;;;;;;;7.70;7.00;;;17.00;51.30;;;;;;5112156;28;20173;-60
2023/01/21 02:15:16;;;;;;;7.60;6.90;;;17.00;51.30;;;;;;5112913;28;20627;-60
2023/01/21 02:18:55;;;;;;;7.93;7.18;;;17.00;51.30;;;;;;5094476;28;20225;-60
2023/01/21 02:21:32;;;;;;;7.43;6.72;;;17.00;51.30;;;;;;4954736;28;20175;-59
2023/01/21 02:24:25;;;;;;;7.80;7.10;;;17.00;51.30;;;;;;5010680;28;20188;-60
2023/01/21 02:27:04;;;;;;;7.45;6.75;;;16.90;51.30;;;;;;5083547;28;20225;-60
2023/01/21 02:30:06;;;;;;;7.82;7.15;;;16.90;51.30;;;;;;5095051;28;20268;-59
2023/01/21 02:32:58;;;;;;;7.28;6.57;;;16.90;51.30;;;;;;5089692;28;20268;-59
2023/01/21 02:35:31;;;;;;;7.47;6.78;;;16.90;51.30;;;;;;5097123;28;20173;-60
2023/01/21 02:38:18;;;;;;;7.03;6.43;;;16.90;51.30;;;;;;5077858;28;20201;-60
2023/01/21 02:41:23;;;;;;;7.40;6.70;;;16.90;51.30;;;;;;5096623;28;20181;-60
2023/01/21 02:44:09;;;;;;;7.03;6.32;;;16.90;51.30;;;;;;5112406;28;20180;-60
2023/01/21 02:46:45;;;;;;;6.78;6.25;;;16.80;51.20;;;;;;5095077;28;20181;-60
2023/01/21 02:49:14;;;;;;;7.63;6.97;;;16.80;51.20;;;;;;5097535;28;20169;-59
2023/01/21 02:51:45;;;;;;;7.78;7.07;;;16.80;51.20;;;;;;5097849;28;20173;-60
2023/01/21 02:54:12;;;;;;;7.53;6.82;;;16.80;51.20;;;;;;5115467;28;20550;-60
2023/01/21 02:56:38;;;;;;;6.72;6.13;;;16.80;51.20;;;;;;5116052;28;20184;-59
2023/01/21 02:59:03;;;;;;;7.43;6.72;;;16.80;51.20;;;;;;5098036;28;20538;-60
2023/01/21 03:01:47;;;;;;;6.93;6.30;;;16.70;51.20;;;;;;5097265;28;20954;-58
2023/01/21 03:05:05;;;;;;;6.68;6.07;;;16.70;51.20;;;;;;5097878;28;20658;-58
2023/01/21 03:07:41;;;;;;;7.10;6.50;;;16.70;51.20;;;;;;5073974;28;20222;-58
2023/01/21 03:10:25;;;;;;;7.40;6.70;;;16.70;51.20;;;;;;5115176;28;20639;-58
2023/01/21 03:13:00;;;;;;;6.88;6.28;;;16.70;51.20;;;;;;5097459;28;20184;-58
2023/01/21 03:18:28;;;;;;;7.03;6.43;;;16.70;51.20;;;;;;5100389;28;20192;-58
2023/01/21 03:20:58;;;;;;;6.18;5.57;;;16.70;51.20;;;;;;5080776;28;20181;-58
2023/01/21 03:23:27;;;;;;;6.80;6.20;;;16.70;51.20;;;;;;5080271;28;20705;-58
2023/01/21 03:25:53;;;;;;;6.68;6.07;;;16.70;51.20;;;;;;5115443;28;20185;-57
2023/01/21 03:28:20;;;;;;;6.68;6.03;;;16.70;51.20;;;;;;5080598;28;20229;-58
2023/01/21 03:30:53;;;;;;;6.65;6.05;;;16.70;51.20;;;;;;5096446;28;20310;-57
2023/01/21 03:33:18;;;;;;;6.57;5.97;;;16.60;51.20;;;;;;5097398;28;20227;-58
2023/01/21 03:35:44;;;;;;;6.45;5.95;;;16.60;51.20;;;;;;5079993;28;20257;-58
2023/01/21 03:38:17;;;;;;;6.47;5.88;;;16.60;51.20;;;;;;5096347;28;20587;-58
2023/01/21 03:41:13;;;;;;;6.40;5.80;;;16.60;51.20;;;;;;5115042;28;20177;-58
2023/01/21 03:43:38;;;;;;;6.30;5.70;;;16.60;51.20;;;;;;5075068;28;20543;-58
2023/01/21 03:46:33;;;;;;;6.38;5.78;;;16.60;51.20;;;;;;5115044;28;20627;-58
2023/01/21 03:48:59;;;;;;;7.05;6.45;;;16.60;51.20;;;;;;5115251;28;20240;-58
2023/01/21 03:51:37;;;;;;;6.28;5.78;;;16.50;51.20;;;;;;5096070;28;20666;-58
2023/01/21 03:54:03;;;;;;;6.07;5.50;;;16.50;51.20;;;;;;5096983;28;20173;-57
2023/01/21 03:56:28;;;;;;;6.40;5.80;;;16.50;51.20;;;;;;5115323;28;20221;-58
2023/01/21 03:58:54;;;;;;;6.07;5.57;;;16.50;51.20;;;;;;5113571;28;20193;-57
2023/01/21 04:01:19;;;;;;;6.15;5.65;;;16.50;51.10;;;;;;5114966;28;20529;-58
2023/01/21 04:03:45;;;;;;;6.13;5.63;;;16.50;51.20;;;;;;5114688;28;20181;-58
2023/01/21 04:06:20;;;;;;;6.05;5.55;;;16.50;51.10;;;;;;5114135;28;20595;-58
2023/01/21 04:08:46;;;;;;;5.63;5.13;;;16.40;51.10;;;;;;5114379;28;20746;-58
2023/01/21 04:11:11;;;;;;;6.45;5.85;;;16.40;51.20;;;;;;5114723;28;20173;-58
2023/01/21 04:13:37;;;;;;;6.53;5.75;;;16.40;51.10;;;;;;5113427;28;20177;-57
2023/01/21 04:16:02;;;;;;;6.43;5.93;;;16.40;51.20;;;;;;5114668;28;20221;-58
2023/01/21 04:18:28;;;;;;;6.93;6.32;;;16.40;51.10;;;;;;5114617;28;20182;-58
2023/01/21 04:20:54;;;;;;;6.63;6.00;;;16.40;51.10;;;;;;5113679;28;20226;-58
2023/01/21 04:23:19;;;;;;;5.45;4.95;;;16.40;51.10;;;;;;5114454;28;20212;-58
2023/01/21 04:25:47;;;;;;;6.10;5.53;;;16.40;51.20;;;;;;5113354;28;20263;-58
2023/01/21 04:28:12;;;;;;;6.03;5.53;;;16.40;51.20;;;;;;5114553;28;20173;-58
2023/01/21 04:30:38;;;;;;;5.88;5.20;;;16.40;51.20;;;;;;5096032;28;20196;-57
2023/01/21 04:33:03;;;;;;;5.80;5.30;;;16.30;51.20;;;;;;5113726;28;20169;-58
2023/01/21 04:35:29;;;;;;;5.82;5.32;;;16.30;51.20;;;;;;5114364;28;20165;-60
2023/01/21 04:37:54;;;;;;;6.03;5.53;;;16.30;51.20;;;;;;5113791;28;20531;-61
2023/01/21 04:40:20;;;;;;;5.65;5.15;;;16.30;51.20;;;;;;5113350;28;20623;-59
2023/01/21 04:42:45;;;;;;;6.57;5.97;;;16.30;51.20;;;;;;5113575;28;20681;-58
2023/01/21 04:45:11;;;;;;;6.80;6.03;;;16.30;51.20;;;;;;5113980;28;20691;-58
2023/01/21 04:47:43;;;;;;;6.32;5.72;;;16.30;51.20;;;;;;5112850;28;20314;-58
2023/01/21 04:50:10;;;;;;;6.28;5.68;;;16.30;51.20;;;;;;5114068;28;20177;-58
2023/01/21 04:52:36;;;;;;;6.10;5.60;;;16.30;51.20;;;;;;5113348;28;20187;-58
2023/01/21 04:55:01;;;;;;;5.88;5.38;;;16.30;51.30;;;;;;5113084;28;20581;-57
2023/01/21 04:57:27;;;;;;;5.47;5.00;;;16.20;51.20;;;;;;5113980;28;20201;-58
2023/01/21 04:59:52;;;;;;;5.78;5.22;;;16.20;51.30;;;;;;5113350;28;20205;-58
2023/01/21 05:02:18;;;;;;;5.88;5.38;;;16.20;51.20;;;;;;5112977;28;20261;-58
2023/01/21 05:04:43;;;;;;;6.65;5.90;;;16.20;51.20;;;;;;5113348;28;20161;-58
2023/01/21 05:07:10;;;;;;;6.57;5.97;;;16.20;51.20;;;;;;5113754;28;20188;-58
2023/01/21 05:09:36;;;;;;;6.20;5.65;;;16.20;51.20;;;;;;5112106;28;20264;-58
2023/01/21 05:12:01;;;;;;;5.57;5.07;;;16.20;51.20;;;;;;5113473;28;20256;-58
2023/01/21 05:14:27;;;;;;;6.28;5.68;;;16.20;51.20;;;;;;5113762;28;20615;-58
2023/01/21 05:16:52;;;;;;;5.88;5.28;;;16.20;51.30;;;;;;5112411;28;20224;-58
2023/01/21 05:19:18;;;;;;;6.15;5.65;;;16.10;51.20;;;;;;5113543;28;20173;-58
2023/01/21 05:21:44;;;;;;;6.40;5.80;;;16.10;51.20;;;;;;5113133;28;20192;-58
2023/01/21 05:24:09;;;;;;;5.97;5.47;;;16.20;51.30;;;;;;5112563;28;20230;-58
2023/01/21 05:26:35;;;;;;;6.07;5.40;;;16.10;51.20;;;;;;5113289;28;20176;-57
2023/01/21 05:29:00;;;;;;;5.85;5.25;;;16.10;51.20;;;;;;5112499;28;20215;-57
2023/01/21 05:31:26;;;;;;;5.57;5.10;;;16.10;51.20;;;;;;5113376;28;20228;-57
2023/01/21 05:33:51;;;;;;;6.25;5.63;;;16.10;51.20;;;;;;5113000;28;20201;-58
2023/01/21 05:36:17;;;;;;;6.43;5.82;;;16.10;51.20;;;;;;5112662;28;20208;-58
2023/01/21 05:38:42;;;;;;;6.40;5.80;;;16.10;51.30;;;;;;5112857;28;20200;-58
2023/01/21 05:41:08;;;;;;;6.05;5.55;;;16.10;51.30;;;;;;5113413;28;20201;-58
2023/01/21 05:43:33;;;;;;;6.20;5.60;;;16.00;51.20;;;;;;5111993;28;20204;-58
2023/01/21 05:45:59;;;;;;;5.95;5.45;;;16.00;51.20;;;;;;5113358;28;20169;-58
2023/01/21 05:48:24;;;;;;;5.90;5.40;;;16.00;51.20;;;;;;5113156;28;20177;-58
2023/01/21 05:50:50;;;;;;;6.22;5.72;;;16.00;51.20;;;;;;5112285;28;20922;-58
2023/01/21 05:53:16;;;;;;;6.03;5.53;;;16.00;51.20;;;;;;5112965;28;20230;-57
2023/01/21 05:55:41;;;;;;;6.65;6.05;;;16.00;51.20;;;;;;5112877;28;20594;-57
2023/01/21 05:58:07;;;;;;;6.07;5.50;;;16.00;51.20;;;;;;5112332;28;20169;-57
2023/01/21 06:00:32;;;;;;;5.95;5.35;;;16.00;51.20;;;;;;5112860;28;20177;-57
2023/01/21 06:03:01;;;;;;;6.47;5.85;;;16.00;51.20;;;;;;5112992;28;20212;-58
2023/01/21 06:05:27;;;;;;;6.30;5.70;;;16.00;51.30;;;;;;5112444;28;20177;-58
2023/01/21 06:07:53;;;;;;;6.03;5.43;;;15.90;51.20;;;;;;5112642;28;20179;-58
2023/01/21 06:10:19;;;;;;;6.00;5.50;;;15.90;51.20;;;;;;5112895;28;20166;-58
2023/01/21 06:12:45;;;;;;;6.35;5.75;;;15.90;51.20;;;;;;5112101;28;20226;-58
2023/01/21 06:15:11;;;;;;;7.35;6.65;;;15.90;51.20;;;;;;5113055;28;20165;-58
2023/01/21 06:17:39;;;;;;;6.32;5.72;;;15.90;51.20;;;;;;5112441;28;20595;-61
2023/01/21 06:20:06;;;;;;;6.63;6.03;;;15.90;51.30;;;;;;5112247;28;20173;-60
2023/01/21 06:22:32;;;;;;;6.80;6.10;;;15.90;51.30;;;;;;5115250;28;20239;-60
2023/01/21 06:24:57;;;;;;;6.45;5.85;;;15.80;51.20;;;;;;5117056;28;20189;-58
2023/01/21 06:27:23;;;;;;;6.28;5.70;;;15.90;51.30;;;;;;5116092;28;20169;-61
2023/01/21 06:29:48;;;;;;;7.05;6.28;;;15.90;51.30;;;;;;5116478;28;20173;-59
2023/01/21 06:32:14;;;;;;;6.75;6.15;;;15.80;51.30;;;;;;5115986;28;20214;-59
2023/01/21 06:34:39;;;;;;;7.00;6.40;;;15.80;51.30;;;;;;5116258;28;20177;-59
2023/01/21 06:37:05;;;;;;;6.63;5.97;;;15.80;51.30;;;;;;5116517;28;20169;-60
2023/01/21 06:39:30;;;;;;;7.15;6.45;;;15.80;51.30;;;;;;5115549;28;20181;-58
2023/01/21 06:41:56;;;;;;;6.97;6.35;;;15.80;51.30;;;;;;5116412;28;20205;-60
2023/01/21 06:44:22;;;;;;;6.95;6.25;;;15.80;51.20;;;;;;5116383;28;20628;-60
2023/01/21 06:46:47;;;;;;;6.97;6.28;;;15.80;51.30;;;;;;5115356;28;20644;-59
2023/01/21 06:49:13;;;;;;;7.15;6.53;;;15.80;51.30;;;;;;5116258;28;20670;-59
2023/01/21 06:51:38;;;;;;;7.20;6.50;;;15.80;51.30;;;;;;5115833;28;20248;-59
2023/01/21 06:54:04;;;;;;;7.15;6.38;;;15.80;51.30;;;;;;5115546;28;20169;-59
2023/01/21 06:56:30;;;;;;;7.13;6.43;;;15.70;51.30;;;;;;5116410;28;20173;-60
2023/01/21 06:58:55;;;;;;;7.22;6.53;;;15.80;51.30;;;;;;5116235;28;20169;-58
2023/01/21 07:01:21;;;;;;;7.80;6.38;;;15.80;51.40;;;;;;5115283;28;20249;-58
2023/01/21 07:03:46;;;;;;;7.22;6.40;;;15.80;51.40;;;;;;5115592;28;20212;-59
2023/01/21 07:06:12;;;;;;;6.97;6.28;;;15.80;51.30;;;;;;5115919;28;20222;-59
2023/01/21 07:08:37;;;;;;;6.13;5.53;;;15.90;51.30;;;;;;5114952;28;20173;-59
2023/01/21 07:11:03;;;;;;;6.03;5.47;;;16.00;51.50;;;;;;5115749;28;20172;-59
2023/01/21 07:13:28;;;;;;;6.78;6.13;;;16.10;51.40;;;;;;5116022;28;20180;-61
2023/01/21 07:16:00;;;;;;;5.90;5.40;;;16.20;51.30;;;;;;5114730;28;20639;-60
2023/01/21 07:18:26;;;;;;;5.65;5.15;;;16.40;51.00;;;;;;5115895;28;20258;-60
2023/01/21 07:20:52;;;;;;;5.68;5.05;;;16.60;50.70;;;;;;5115346;28;20185;-59
2023/01/21 07:23:17;;;;;;;5.90;5.32;;;16.70;50.40;;;;;;5114967;28;20303;-59
2023/01/21 07:25:43;;;;;;;5.55;5.05;;;16.90;50.30;;;;;;5115457;28;20263;-58
2023/01/21 07:28:08;;;;;;;5.82;5.32;;;16.90;50.80;;;;;;5115632;28;20252;-59
2023/01/21 07:30:34;;;;;;;5.70;5.13;;;17.00;50.10;;;;;;5114520;28;20269;-59
2023/01/21 07:33:08;;;;;;;5.35;4.85;;;17.00;50.00;;;;;;5114701;28;20173;-59
2023/01/21 07:35:34;;;;;;;6.78;5.50;;;17.10;50.00;;;;;;5114266;28;20183;-59
2023/01/21 07:37:59;;;;;;;5.13;4.63;;;17.20;49.90;;;;;;5115583;28;20173;-61
2023/01/21 07:40:25;;;;;;;5.60;5.10;;;17.20;49.80;;;;;;5115299;28;20520;-60
2023/01/21 07:42:52;;;;;;;5.15;4.65;;;17.30;49.70;;;;;;5114230;28;20213;-59
2023/01/21 07:45:18;;;;;;;5.05;4.50;;;17.30;49.70;;;;;;5115100;28;20687;-59
2023/01/21 07:47:44;;;;;;;5.63;5.05;;;17.30;49.70;;;;;;5114732;28;20219;-59
2023/01/21 07:50:09;;;;;;;5.38;4.88;;;17.30;49.60;;;;;;5114411;28;20196;-58
2023/01/21 07:52:35;;;;;;;5.78;5.18;;;17.40;49.50;;;;;;5114652;28;20206;-59
2023/01/21 07:55:01;;;;;;;5.72;5.18;;;17.30;49.60;;;;;;5115084;28;20172;-58
2023/01/21 07:57:26;;;;;;;5.18;4.78;;;17.30;49.70;;;;;;5114410;28;20635;-58
2023/01/21 07:59:52;;;;;;;5.40;4.90;;;17.10;49.70;;;;;;5114476;28;20635;-59
2023/01/21 08:02:17;;;;;;;5.80;5.30;;;17.10;49.80;;;;;;5114804;28;20289;-59
2023/01/21 08:04:43;;;;;;;5.90;5.25;;;17.10;50.00;;;;;;5113800;28;20165;-59
2023/01/21 08:07:09;;;;;;;4.78;4.32;;;17.10;50.00;;;;;;5114905;28;20204;-59
2023/01/21 08:09:38;;;;;;;4.88;4.40;;;17.10;50.00;;;;;;5114382;28;20181;-59
2023/01/21 08:12:04;;;;;;;5.05;4.63;;;17.20;50.00;;;;;;5114076;28;20184;-59
2023/01/21 08:14:29;;;;;;;5.28;4.78;;;17.20;49.90;;;;;;5114682;28;20205;-59
2023/01/21 08:16:55;;;;;;;5.35;4.85;;;17.10;49.90;;;;;;5113894;28;20703;-59
2023/01/21 08:19:20;;;;;;;4.50;4.10;;;17.10;49.80;;;;;;5113658;28;20260;-59
2023/01/21 08:21:46;;;;;;;5.15;4.65;;;17.20;49.90;;;;;;5114174;28;20296;-59
2023/01/21 08:24:12;;;;;;;5.03;4.53;;;17.10;49.90;;;;;;5114155;28;20260;-69
2023/01/21 08:26:37;;;;;;;4.95;4.53;;;17.10;50.00;;;;;;5113475;28;20260;-67
2023/01/21 08:29:03;;;;;;;5.30;4.72;;;17.00;50.00;;;;;;5114052;28;20184;-67
2023/01/21 08:31:28;;;;;;;5.05;4.55;;;17.00;50.10;;;;;;5114244;28;20180;-67
2023/01/21 08:33:54;;;;;;;5.45;4.95;;;16.90;50.10;;;;;;5113038;28;20180;-66
2023/01/21 08:36:19;;;;;;;5.82;4.72;;;16.90;50.20;;;;;;5115410;28;20180;-66
2023/01/21 08:38:45;;;;;;;5.45;4.95;;;16.90;50.40;;;;;;5113325;28;20205;-66
2023/01/21 08:41:10;;;;;;;5.82;5.07;;;16.90;50.50;;;;;;5114397;28;20212;-68
2023/01/21 08:43:36;;;;;;;5.40;4.90;;;17.10;50.50;;;;;;5113578;28;20577;-69
2023/01/21 08:46:02;;;;;;;5.45;4.85;;;17.20;50.50;;;;;;5112123;28;20559;-69
2023/01/21 08:48:30;;;;;;;6.90;4.95;;;17.40;50.20;;;;;;5113668;28;20188;-68
2023/01/21 08:50:59;;;;;;;5.65;5.10;;;17.60;50.00;;;;;;5114051;28;20260;-66
2023/01/21 08:53:25;;;;;;;6.18;4.80;;;17.80;49.60;;;;;;5113009;28;20199;-66
2023/01/21 08:55:50;;;;;;;5.30;4.72;;;18.00;49.20;;;;;;5113399;28;20532;-64
2023/01/21 08:58:16;;;;;;;5.90;4.70;;;18.30;49.00;;;;;;5113942;28;20177;-64
2023/01/21 09:00:43;;;;;;;6.53;4.50;;;18.40;48.90;;;;;;5112900;28;20563;-64
2023/01/21 09:03:09;;;;;;;8.07;4.30;;;18.40;48.60;;;;;;5114103;28;20666;-65
2023/01/21 09:05:34;;;;;;;5.00;4.20;;;18.50;48.70;;;;;;5113630;28;20177;-65
2023/01/21 09:08:00;;;;;;;4.97;4.45;;;18.50;48.80;;;;;;5113043;28;20632;-65
2023/01/21 09:13:10;;;;;;;6.22;4.80;;;18.60;48.80;;;;;;5113578;28;20180;-65
2023/01/21 09:15:39;;;;;;;4.40;4.00;;;18.60;48.80;;;;;;5112331;28;20169;-66
2023/01/21 09:18:05;;;;;;;4.50;4.10;;;18.70;48.90;;;;;;5113630;28;20201;-64
2023/01/21 09:20:30;;;;;;;4.45;3.90;;;18.60;49.00;;;;;;5113452;28;20261;-65
2023/01/21 09:22:57;;;;;;;4.65;4.22;;;18.60;48.90;;;;;;5112570;28;20257;-64
2023/01/21 09:25:22;;;;;;;6.70;4.53;;;18.70;48.90;;;;;;5113414;28;20188;-64
2023/01/21 09:27:48;;;;;;;4.88;3.50;;;18.70;49.00;;;;;;5113033;28;20169;-65
2023/01/21 09:30:17;;;;;;;5.20;4.53;;;18.70;49.00;;;;;;5112530;28;20176;-65
2023/01/21 09:32:42;;;;;;;4.85;4.22;;;18.70;49.10;;;;;;5113017;28;20657;-63
2023/01/21 09:35:08;;;;;;;3.97;3.67;;;18.70;49.10;;;;;;5112515;28;20177;-65
2023/01/21 09:37:33;;;;;;;4.30;3.90;;;18.70;49.20;;;;;;5113253;28;20176;-65
2023/01/21 09:40:00;;;;;;;6.50;4.00;;;18.70;49.20;;;;;;5113450;28;20200;-65
2023/01/21 09:42:26;;;;;;;4.53;4.13;;;18.70;49.20;;;;;;5112456;28;20533;-66
2023/01/21 09:44:52;;;;;;;5.10;4.18;;;18.70;49.20;;;;;;5094961;28;20177;-65
2023/01/21 09:47:27;;;;;;;4.15;3.83;;;18.70;49.30;;;;;;5113291;28;20700;-65
2023/01/21 09:50:04;;;;;;;4.32;3.92;;;18.70;49.30;;;;;;5094054;28;20234;-65
2023/01/21 09:52:35;;;;;;;4.00;3.60;;;18.70;49.50;;;;;;5095062;28;20181;-65
2023/01/21 09:55:02;;;;;;;3.78;3.47;;;18.70;49.60;;;;;;5113033;28;20210;-64
2023/01/21 09:57:42;;;;;;;4.28;3.88;;;18.60;49.50;;;;;;5114995;28;20177;-65
2023/01/21 10:00:14;;;;;;;4.10;3.80;;;18.60;49.60;;;;;;5099069;28;20173;-65
2023/01/21 10:02:51;;;;;;;3.45;3.22;;;18.50;49.70;;;;;;5116618;28;20212;-66
2023/01/21 10:05:22;;;;;;;4.05;3.72;;;18.40;49.80;;;;;;5099297;28;20173;-67
2023/01/21 10:08:11;;;;;;;4.20;3.90;;;18.40;49.80;;;;;;5116607;28;20620;-65
2023/01/21 10:10:48;;;;;;;4.45;4.05;;;18.40;50.10;;;;;;5100822;28;20534;-65
2023/01/21 10:13:48;;;;;;;5.07;3.78;;;18.30;50.10;;;;;;5098771;28;20175;-80
2023/01/21 10:16:14;;;;;;;4.22;3.83;;;18.30;50.10;;;;;;5026550;28;20220;-83
2023/01/21 10:18:41;;;;;;;4.72;4.32;;;18.30;50.10;;;;;;5115975;28;20165;-83
2023/01/21 10:21:27;;;;;;;4.50;4.10;;;18.20;50.10;;;;;;5098464;28;20177;-83
2023/01/21 10:24:00;;;;;;;5.75;4.18;;;18.20;50.10;;;;;;5099070;28;20240;-83
2023/01/21 10:26:25;;;;;;;6.60;4.55;;;18.10;50.10;;;;;;5098152;28;20238;-79
2023/01/21 10:28:52;;;;;;;4.70;4.25;;;18.10;50.10;;;;;;5098415;28;20643;-80
2023/01/21 10:31:19;;;;;;;4.80;4.40;;;18.10;50.10;;;;;;5081834;28;20212;-75
2023/01/21 10:33:45;;;;;;;5.00;4.03;;;18.10;50.10;;;;;;5098188;28;20176;-82
2023/01/21 10:36:20;;;;;;;5.03;4.63;;;18.10;50.10;;;;;;5098289;28;20169;-83
2023/01/21 10:38:48;;;;;;;5.05;4.55;;;18.10;50.10;;;;;;5113800;28;20188;-83
2023/01/21 10:41:24;;;;;;;5.05;4.30;;;18.10;50.00;;;;;;5116184;28;20177;-83
2023/01/21 10:44:02;;;;;;;4.45;4.05;;;18.20;50.10;;;;;;5116287;28;20215;-78
2023/01/21 10:46:33;;;;;;;5.35;4.45;;;18.20;50.10;;;;;;5115210;28;20184;-82
2023/01/21 10:49:30;;;;;;;4.47;4.07;;;18.20;50.00;;;;;;5098417;28;20208;-81
2023/01/21 10:52:13;;;;;;;4.07;3.72;;;18.20;49.90;;;;;;5100820;28;20177;-82
2023/01/21 10:55:18;;;;;;;4.57;4.18;;;18.30;49.90;;;;;;5097764;28;20173;-81
2023/01/21 10:58:04;;;;;;;5.30;4.00;;;18.30;49.90;;;;;;5063738;28;20185;-79
2023/01/21 11:00:42;;;;;;;4.35;3.90;;;18.30;49.90;;;;;;5077275;28;20174;-81
2023/01/21 11:03:15;;;;;;;5.22;3.90;;;18.30;49.90;;;;;;5077987;28;20212;-81
2023/01/21 11:05:40;;;;;;;4.10;3.70;;;18.30;49.80;;;;;;5077744;28;20178;-82
2023/01/21 11:08:06;;;;;;;3.80;3.50;;;18.40;49.80;;;;;;5075620;28;20174;-83
2023/01/21 11:10:31;;;;;;;4.03;3.67;;;18.40;49.80;;;;;;5077827;28;20177;-81
2023/01/21 11:12:57;;;;;;;4.05;3.65;;;18.40;49.80;;;;;;5085395;28;20169;-82
2023/01/21 11:15:23;;;;;;;4.55;4.15;;;18.40;49.80;;;;;;5080550;28;20169;-78
2023/01/21 11:17:52;;;;;;;4.35;3.95;;;18.50;49.80;;;;;;5115305;28;20236;-82
2023/01/21 11:20:23;;;;;;;4.55;4.15;;;18.50;49.70;;;;;;5116360;28;20173;-82
2023/01/21 11:22:49;;;;;;;4.25;3.90;;;18.50;49.80;;;;;;5114564;28;20265;-82
2023/01/21 11:25:24;;;;;;;4.38;3.97;;;18.50;49.70;;;;;;5097820;28;20176;-80
2023/01/21 11:27:49;;;;;;;11.20;5.18;;;18.50;49.80;;;;;;5114888;28;20264;-82
2023/01/21 11:30:32;;;;;;;4.75;4.20;;;18.40;49.50;;;;;;5115771;28;20260;-78
2023/01/21 11:33:16;;;;;;;8.90;4.25;;;18.50;49.50;;;;;;5115481;28;20185;-80
2023/01/21 11:35:41;;;;;;;4.28;3.97;;;18.50;49.50;;;;;;5114434;28;20173;-77
2023/01/21 11:38:22;;;;;;;4.30;4.00;;;18.50;49.50;;;;;;5081399;28;20169;-76
2023/01/21 11:41:04;;;;;;;4.20;3.80;;;18.50;49.40;;;;;;5115596;28;20230;-84
2023/01/21 11:43:34;;;;;;;4.10;3.63;;;18.50;49.50;;;;;;5114271;28;20296;-67
2023/01/21 11:46:02;;;;;;;4.28;3.70;;;18.50;49.60;;;;;;5115379;28;20188;-67
2023/01/21 11:48:28;;;;;;;4.38;3.47;;;18.50;49.60;;;;;;5076695;28;20185;-67
2023/01/21 11:51:05;;;;;;;3.58;3.28;;;18.60;49.60;;;;;;5075729;28;20162;-67
2023/01/21 11:53:30;;;;;;;4.30;3.67;;;18.60;49.60;;;;;;5094546;28;20178;-68
2023/01/21 11:55:58;;;;;;;3.65;3.10;;;18.70;49.70;;;;;;5075885;28;20176;-65
2023/01/21 11:58:31;;;;;;;3.42;2.95;;;18.70;49.80;;;;;;5094801;28;20174;-66
2023/01/21 12:00:58;;;;;;;3.30;2.92;;;18.70;49.70;;;;;;5094624;28;20182;-66
2023/01/21 12:03:36;;;;;;;3.55;3.25;;;18.70;49.80;;;;;;5093516;28;20291;-68
2023/01/21 12:06:01;;;;;;;3.53;3.20;;;18.70;49.70;;;;;;5076836;28;20239;-68
2023/01/21 12:08:31;;;;;;;2.90;2.70;;;18.70;49.80;;;;;;5094194;28;20542;-68
2023/01/21 12:11:00;;;;;;;3.30;3.00;;;18.70;49.80;;;;;;5093382;28;20177;-67
2023/01/21 12:14:00;;;;;;;2.95;2.75;;;18.70;49.80;;;;;;5094278;28;20545;-65
2023/01/21 12:16:28;;;;;;;3.58;3.05;;;18.70;49.80;;;;;;5094077;28;20291;-74
2023/01/21 12:19:03;;;;;;;3.40;3.10;;;18.70;50.00;;;;;;5092863;28;20184;-70
2023/01/21 12:21:45;;;;;;;4.82;3.10;;;18.60;50.00;;;;;;5094383;28;20177;-68
2023/01/21 12:24:20;;;;;;;4.05;3.58;;;18.50;50.10;;;;;;5077626;28;20189;-65
2023/01/21 12:26:53;;;;;;;4.78;3.45;;;18.60;50.20;;;;;;5075761;28;20176;-65
2023/01/21 12:29:57;;;;;;;3.72;2.92;;;18.50;50.30;;;;;;5075813;28;20296;-65
2023/01/21 12:32:32;;;;;;;4.35;2.90;;;18.50;50.40;;;;;;5093562;28;20189;-64
2023/01/21 12:35:06;;;;;;;3.55;2.90;;;18.50;50.50;;;;;;5075371;28;20632;-64
2023/01/21 12:37:47;;;;;;;2.63;2.42;;;18.60;50.50;;;;;;5093623;28;20310;-64
2023/01/21 12:40:23;;;;;;;4.38;2.65;;;18.80;50.30;;;;;;5074688;28;20696;-64
2023/01/21 12:42:52;;;;;;;3.78;2.60;;;19.10;50.00;;;;;;5075391;28;20240;-65
2023/01/21 12:45:20;;;;;;;2.92;2.72;;;19.30;49.70;;;;;;5075132;28;20174;-64
2023/01/21 12:48:07;;;;;;;3.47;2.95;;;19.30;49.40;;;;;;5085216;28;20197;-64
2023/01/21 12:50:42;;;;;;;3.08;2.78;;;19.50;49.40;;;;;;5093528;28;20177;-64
2023/01/21 12:53:08;;;;;;;3.50;2.80;;;19.50;49.30;;;;;;5074981;28;20177;-64
2023/01/21 12:55:43;;;;;;;2.75;2.55;;;19.60;49.20;;;;;;5093184;28;20243;-64
2023/01/21 12:58:13;;;;;;;3.28;2.97;;;19.70;49.20;;;;;;5093529;28;20173;-67
2023/01/21 13:00:44;;;;;;;5.50;2.72;;;19.70;49.20;;;;;;5074338;28;20231;-67
2023/01/21 13:03:28;;;;;;;2.85;2.65;;;19.80;49.10;;;;;;5092177;28;20217;-68
2023/01/21 13:06:03;;;;;;;3.40;2.55;;;19.80;48.80;;;;;;5093125;28;20177;-68